EST,Max TemperatureF,Mean TemperatureF,Min TemperatureF,Max Dew PointF,MeanDew PointF,Min DewpointF,Max Humidity, Mean Humidity, Min Humidity, Max Sea Level PressureIn, Mean Sea Level PressureIn, Min Sea Level PressureIn, Max VisibilityMiles, Mean VisibilityMiles, Min VisibilityMiles, Max Wind SpeedMPH, Mean Wind SpeedMPH, Max Gust SpeedMPH,PrecipitationIn, CloudCover, Events, WindDirDegrees
2012-11-1,50,46,40,36,31,24,81,64,40,29.80,29.73,29.69,10,10,10,14,7,21,0.00,7,,290
2012-11-2,43,38,34,31,28,26,74,64,54,30.08,29.94,29.81,10,10,10,14,5,23,0.00,7,,306
2012-11-3,47,38,30,30,28,26,86,68,48,30.19,30.15,30.08,10,10,10,9,4,16,0.00,2,,331
2012-11-4,39,36,32,28,26,25,75,67,56,30.21,30.18,30.15,10,10,10,8,3,,0.00,7,,345
2012-11-5,42,32,22,27,24,19,90,74,50,30.22,30.18,30.16,10,10,7,7,1,,0.00,1,,49
2012-11-6,43,32,22,29,25,19,90,77,52,30.16,30.06,29.96,10,8,4,12,2,,0.00,3,,102
2012-11-7,48,38,28,34,29,24,89,75,55,30.14,30.04,29.96,10,9,7,9,4,,0.00,2,,53
2012-11-8,49,36,22,32,28,20,90,76,48,30.23,30.17,30.15,10,7,2,7,0,,0.00,0,,277
2012-11-9,56,42,27,45,34,25,93,71,48,30.22,30.15,30.08,10,6,0,8,1,,0.00,4,Fog-Rain,183
2012-11-10,66,56,47,47,45,43,91,66,49,30.14,30.10,30.05,10,8,3,14,4,23,0.00,4,,177
2012-11-11,68,61,54,45,39,33,60,45,32,30.16,30.08,29.99,10,10,10,20,11,29,0.00,0,,190
2012-11-12,62,48,33,53,37,23,91,75,44,30.29,30.07,29.92,10,9,4,16,10,25,0.00,6,Rain,237
2012-11-13,37,32,27,26,23,20,86,64,50,30.54,30.44,30.29,10,10,10,10,5,16,0.00,7,,271
2012-11-14,40,31,22,29,24,19,89,75,55,30.58,30.52,30.43,10,10,5,8,1,,0.00,2,,112
2012-11-15,45,36,28,32,30,26,91,78,59,30.43,30.37,30.33,10,9,2,6,0,,0.00,4,,11
2012-11-16,51,38,24,33,26,22,92,72,37,30.51,30.45,30.37,10,6,1,6,0,,0.00,0,,89
2012-11-17,51,38,25,40,31,22,93,79,54,30.61,30.56,30.51,10,5,0,7,1,,0.00,0,Fog,101
2012-11-18,52,40,29,42,33,28,96,82,41,30.53,30.48,30.41,10,4,0,8,1,,0.00,3,Fog-Snow,87
2012-11-19,54,40,27,39,31,26,94,78,37,30.41,30.31,30.18,10,6,0,6,0,,0.00,2,Fog-Snow,110
2012-11-20,59,48,36,40,36,33,89,71,38,30.18,30.13,30.08,10,8,4,5,0,,0.00,6,Rain,139
2012-11-21,61,46,32,41,36,30,94,78,43,30.24,30.19,30.15,10,5,0,8,1,,0.00,1,Fog,256
2012-11-22,61,48,35,44,40,34,93,70,46,30.19,30.06,29.86,10,6,1,15,5,23,0.00,1,Rain,200
2012-11-23,55,44,32,49,33,24,89,72,56,30.03,29.89,29.76,10,10,5,21,13,32,0.00,7,Rain-Snow,252
2012-11-24,34,32,31,26,20,16,72,61,50,30.13,30.09,30.04,10,10,10,13,8,20,0.00,8,,287
2012-11-25,39,34,29,28,23,20,82,68,56,30.07,29.94,29.86,10,10,5,14,7,20,0.00,5,,238
2012-11-26,41,32,24,29,24,20,90,71,53,30.29,30.16,30.01,10,9,4,12,2,17,0.00,5,,309
2012-11-27,36,28,20,22,18,15,86,62,45,30.38,30.30,30.26,10,10,3,7,2,,0.00,1,,267
2012-11-28,41,34,26,24,21,18,72,60,46,30.33,30.29,30.23,10,10,10,16,7,22,0.00,3,,246
2012-11-29,47,38,30,28,25,22,74,61,43,30.32,30.27,30.20,10,10,7,13,6,21,0.00,1,,224
2012-11-30,46,42,37,38,32,28,88,71,54,30.23,30.19,30.13,10,9,5,13,2,18,0.00,6,,88